createdAt,value
2022-10-19T00:08:06.438Z,8.5
2022-10-19T00:38:07.650Z,8.1
2022-10-19T00:48:08.171Z,8
2022-10-19T00:58:08.862Z,7.9
2022-10-19T01:08:09.734Z,7.8
2022-10-19T01:18:10.726Z,7.7
2022-10-19T01:28:11.253Z,7.7
2022-10-19T01:38:11.800Z,7.5
2022-10-19T01:48:12.214Z,7.4
2022-10-19T01:58:12.857Z,7.4
2022-10-19T02:08:13.394Z,7.3
2022-10-19T02:18:13.640Z,7.3
2022-10-19T02:28:14.183Z,7.2
2022-10-19T02:58:15.880Z,7.1
2022-10-19T03:08:16.447Z,7.3
2022-10-19T03:18:16.542Z,7.8
2022-10-19T03:28:17.330Z,7.6
2022-10-19T03:38:17.885Z,7.7
2022-10-19T03:48:18.350Z,8.1
2022-10-19T03:58:19.014Z,8.2
2022-10-19T04:08:19.971Z,8.1
2022-10-19T04:18:19.994Z,8
2022-10-19T04:28:20.880Z,8
2022-10-19T04:38:21.593Z,8
2022-10-19T04:48:22.065Z,8
2022-10-19T04:58:22.617Z,8
2022-10-19T05:08:23.516Z,7.9
2022-10-19T05:18:23.895Z,7.7
2022-10-19T05:28:24.872Z,7.6
2022-10-19T05:38:25.070Z,7.6
2022-10-19T05:48:25.527Z,7.5
2022-10-19T05:58:26.389Z,7.4
2022-10-19T06:08:26.553Z,7.6
2022-10-19T06:18:26.970Z,7.4
2022-10-19T06:28:28.010Z,6.7
2022-10-19T06:38:28.853Z,6.6
2022-10-19T06:48:29.859Z,6.7
2022-10-19T06:58:30.109Z,7
2022-10-19T07:08:31.098Z,7.4
2022-10-19T07:18:31.465Z,7.7
2022-10-19T07:28:32.300Z,8
2022-10-19T07:38:33.195Z,8.2
2022-10-19T07:48:33.376Z,8.5
2022-10-19T07:58:33.813Z,8.5
2022-10-19T08:08:33.981Z,8.9
2022-10-19T08:18:34.556Z,9.3
2022-10-19T08:28:35.564Z,9.6
2022-10-19T08:38:36.007Z,9.9
2022-10-19T08:48:37.008Z,10.3
2022-10-19T08:58:37.721Z,10.7
2022-10-19T09:08:38.804Z,10.9
2022-10-19T09:18:39.728Z,11.3
2022-10-19T09:28:40.237Z,11.4
2022-10-19T09:38:40.614Z,11.7
2022-10-19T09:48:40.887Z,12
2022-10-19T09:58:41.467Z,12.2
2022-10-19T10:08:41.713Z,12.5
2022-10-19T10:18:41.999Z,12.8
2022-10-19T10:28:42.859Z,13
2022-10-19T10:38:43.612Z,13.2
2022-10-19T10:48:44.516Z,13.2
2022-10-19T11:08:45.100Z,13.8
2022-10-19T11:28:46.213Z,14
2022-10-19T11:38:46.413Z,14.3
2022-10-19T11:58:47.301Z,14.1
2022-10-19T12:08:48.371Z,14.4
2022-10-19T12:18:48.475Z,14.4
2022-10-19T12:28:49.089Z,14.5
2022-10-19T12:38:50.859Z,14.9
2022-10-19T12:48:50.506Z,15.2
2022-10-19T12:58:51.566Z,14.9
2022-10-19T13:08:52.138Z,14.6
2022-10-19T13:18:52.700Z,14.8
2022-10-19T13:28:53.516Z,14.8
2022-10-19T13:48:55.223Z,14.8
2022-10-19T13:58:55.348Z,14.6
2022-10-19T14:09:01.653Z,14.4
2022-10-19T14:19:02.313Z,14.4
2022-10-19T14:49:04.606Z,14.3
2022-10-19T15:09:05.420Z,13.9
2022-10-19T15:19:05.484Z,13.8
2022-10-19T15:59:08.288Z,13.1
2022-10-19T16:09:08.699Z,12.8
2022-10-19T16:19:09.332Z,12.6
2022-10-19T16:29:09.764Z,12.4
2022-10-19T16:49:09.998Z,12
2022-10-19T16:59:10.758Z,11.8
2022-10-19T17:09:36.978Z,11.6
2022-10-19T17:19:11.942Z,11.4
2022-10-19T17:59:14.310Z,11
2022-10-19T18:19:15.124Z,10.8
2022-10-19T18:29:15.570Z,10.6
2022-10-19T18:49:17.174Z,10.5
2022-10-19T19:29:19.441Z,9.9
2022-10-19T19:49:20.847Z,9.5
2022-10-19T20:09:22.254Z,9.2
2022-10-19T20:19:22.598Z,9.1
2022-10-19T20:29:23.188Z,9.1
2022-10-19T20:49:23.773Z,8.9
2022-10-19T21:09:24.450Z,8.6
2022-10-19T22:49:30.254Z,8.1
2022-10-19T22:59:30.954Z,8.1
2022-10-19T23:29:32.436Z,7.9
2022-10-19T23:39:33.484Z,7.9
2022-10-19T23:49:34.326Z,7.8
2022-10-19T23:59:34.448Z,7.8
